sensor_id;sensor_type;location;lat;lon;timestamp;P1;durP1;ratioP1;P2;durP2;ratioP2
36457;SDS011;22480;50.546;12.292;2024-01-10T00:01:35;84.20;;;37.13;;
36457;SDS011;22480;50.546;12.292;2024-01-10T00:04:01;75.37;;;32.97;;
36457;SDS011;22480;50.546;12.292;2024-01-10T00:06:27;87.77;;;37.27;;
36457;SDS011;22480;50.546;12.292;2024-01-10T00:08:53;90.37;;;40.73;;
36457;SDS011;22480;50.546;12.292;2024-01-10T00:11:19;76.20;;;35.93;;
36457;SDS011;22480;50.546;12.292;2024-01-10T00:13:45;81.97;;;37.30;;
36457;SDS011;22480;50.546;12.292;2024-01-10T00:16:14;78.23;;;34.43;;
36457;SDS011;22480;50.546;12.292;2024-01-10T00:18:40;80.88;;;36.78;;
36457;SDS011;22480;50.546;12.292;2024-01-10T00:21:09;77.37;;;35.97;;
36457;SDS011;22480;50.546;12.292;2024-01-10T00:23:35;78.20;;;34.85;;
36457;SDS011;22480;50.546;12.292;2024-01-10T00:26:01;72.10;;;32.13;;
36457;SDS011;22480;50.546;12.292;2024-01-10T00:28:27;71.27;;;33.00;;
36457;SDS011;22480;50.546;12.292;2024-01-10T00:30:52;73.57;;;35.20;;
36457;SDS011;22480;50.546;12.292;2024-01-10T00:33:18;71.70;;;33.73;;
36457;SDS011;22480;50.546;12.292;2024-01-10T00:35:44;66.73;;;34.17;;
36457;SDS011;22480;50.546;12.292;2024-01-10T00:38:09;72.70;;;32.90;;
36457;SDS011;22480;50.546;12.292;2024-01-10T00:40:35;73.90;;;33.23;;
36457;SDS011;22480;50.546;12.292;2024-01-10T00:43:01;72.93;;;34.93;;
36457;SDS011;22480;50.546;12.292;2024-01-10T00:45:28;74.03;;;36.43;;
36457;SDS011;22480;50.546;12.292;2024-01-10T00:47:53;73.73;;;32.93;;
36457;SDS011;22480;50.546;12.292;2024-01-10T00:50:19;69.70;;;36.57;;
36457;SDS011;22480;50.546;12.292;2024-01-10T00:52:45;63.90;;;34.43;;
36457;SDS011;22480;50.546;12.292;2024-01-10T00:55:11;66.60;;;32.70;;
36457;SDS011;22480;50.546;12.292;2024-01-10T00:57:37;69.73;;;33.90;;
36457;SDS011;22480;50.546;12.292;2024-01-10T01:00:07;73.20;;;32.77;;
36457;SDS011;22480;50.546;12.292;2024-01-10T01:02:34;62.63;;;33.10;;
36457;SDS011;22480;50.546;12.292;2024-01-10T01:05:00;69.13;;;30.97;;
36457;SDS011;22480;50.546;12.292;2024-01-10T01:07:27;68.90;;;31.47;;
36457;SDS011;22480;50.546;12.292;2024-01-10T01:09:53;71.97;;;33.57;;
36457;SDS011;22480;50.546;12.292;2024-01-10T01:12:19;66.97;;;33.10;;
36457;SDS011;22480;50.546;12.292;2024-01-10T01:14:45;66.13;;;32.27;;
36457;SDS011;22480;50.546;12.292;2024-01-10T01:17:10;65.60;;;32.23;;
36457;SDS011;22480;50.546;12.292;2024-01-10T01:19:36;72.90;;;32.70;;
36457;SDS011;22480;50.546;12.292;2024-01-10T01:22:02;77.33;;;34.40;;
36457;SDS011;22480;50.546;12.292;2024-01-10T01:24:28;69.40;;;31.97;;
36457;SDS011;22480;50.546;12.292;2024-01-10T01:26:53;73.10;;;32.10;;
36457;SDS011;22480;50.546;12.292;2024-01-10T01:29:19;69.10;;;33.37;;
36457;SDS011;22480;50.546;12.292;2024-01-10T01:31:45;70.90;;;32.10;;
36457;SDS011;22480;50.546;12.292;2024-01-10T01:34:12;74.23;;;35.27;;
36457;SDS011;22480;50.546;12.292;2024-01-10T01:36:37;71.33;;;33.80;;
36457;SDS011;22480;50.546;12.292;2024-01-10T01:39:03;68.13;;;33.27;;
36457;SDS011;22480;50.546;12.292;2024-01-10T01:41:29;69.73;;;32.97;;
36457;SDS011;22480;50.546;12.292;2024-01-10T01:43:54;80.17;;;34.70;;
36457;SDS011;22480;50.546;12.292;2024-01-10T01:46:20;71.13;;;33.97;;
36457;SDS011;22480;50.546;12.292;2024-01-10T01:48:47;72.60;;;36.07;;
36457;SDS011;22480;50.546;12.292;2024-01-10T01:51:12;75.10;;;34.10;;
36457;SDS011;22480;50.546;12.292;2024-01-10T01:53:40;66.47;;;31.53;;
36457;SDS011;22480;50.546;12.292;2024-01-10T01:56:07;73.80;;;33.27;;
36457;SDS011;22480;50.546;12.292;2024-01-10T01:58:35;68.43;;;30.07;;
36457;SDS011;22480;50.546;12.292;2024-01-10T02:01:02;68.50;;;32.17;;
36457;SDS011;22480;50.546;12.292;2024-01-10T02:03:33;80.67;;;34.70;;
36457;SDS011;22480;50.546;12.292;2024-01-10T02:05:59;71.43;;;33.72;;
36457;SDS011;22480;50.546;12.292;2024-01-10T02:08:29;71.10;;;32.25;;
36457;SDS011;22480;50.546;12.292;2024-01-10T02:13:24;74.80;;;32.63;;
36457;SDS011;22480;50.546;12.292;2024-01-10T02:15:50;78.13;;;35.43;;
36457;SDS011;22480;50.546;12.292;2024-01-10T02:18:17;77.37;;;35.23;;
36457;SDS011;22480;50.546;12.292;2024-01-10T02:20:43;78.90;;;36.13;;
36457;SDS011;22480;50.546;12.292;2024-01-10T02:23:10;71.80;;;32.90;;
36457;SDS011;22480;50.546;12.292;2024-01-10T02:25:36;71.50;;;33.97;;
36457;SDS011;22480;50.546;12.292;2024-01-10T02:28:02;81.70;;;33.80;;
36457;SDS011;22480;50.546;12.292;2024-01-10T02:30:29;78.10;;;33.33;;
36457;SDS011;22480;50.546;12.292;2024-01-10T02:32:54;76.23;;;33.77;;
36457;SDS011;22480;50.546;12.292;2024-01-10T02:35:20;73.83;;;33.40;;
36457;SDS011;22480;50.546;12.292;2024-01-10T02:37:45;85.80;;;34.83;;
36457;SDS011;22480;50.546;12.292;2024-01-10T02:40:11;73.80;;;31.80;;
36457;SDS011;22480;50.546;12.292;2024-01-10T02:42:37;77.03;;;33.57;;
36457;SDS011;22480;50.546;12.292;2024-01-10T02:45:04;77.33;;;34.83;;
36457;SDS011;22480;50.546;12.292;2024-01-10T02:47:30;75.30;;;32.80;;
36457;SDS011;22480;50.546;12.292;2024-01-10T02:49:56;76.17;;;34.30;;
36457;SDS011;22480;50.546;12.292;2024-01-10T02:52:21;72.63;;;34.40;;
36457;SDS011;22480;50.546;12.292;2024-01-10T02:54:47;83.20;;;33.70;;
36457;SDS011;22480;50.546;12.292;2024-01-10T02:57:13;85.33;;;36.70;;
36457;SDS011;22480;50.546;12.292;2024-01-10T02:59:38;77.27;;;34.23;;
36457;SDS011;22480;50.546;12.292;2024-01-10T03:02:04;83.67;;;34.63;;
36457;SDS011;22480;50.546;12.292;2024-01-10T03:04:30;77.53;;;35.67;;
36457;SDS011;22480;50.546;12.292;2024-01-10T03:06:55;76.13;;;34.90;;
36457;SDS011;22480;50.546;12.292;2024-01-10T03:09:22;82.87;;;34.43;;
36457;SDS011;22480;50.546;12.292;2024-01-10T03:11:48;82.13;;;35.90;;
36457;SDS011;22480;50.546;12.292;2024-01-10T03:14:14;78.27;;;35.20;;
36457;SDS011;22480;50.546;12.292;2024-01-10T03:16:40;81.33;;;35.00;;
36457;SDS011;22480;50.546;12.292;2024-01-10T03:19:06;70.23;;;30.90;;
36457;SDS011;22480;50.546;12.292;2024-01-10T03:21:31;72.17;;;32.87;;
36457;SDS011;22480;50.546;12.292;2024-01-10T03:23:58;73.80;;;33.53;;
36457;SDS011;22480;50.546;12.292;2024-01-10T03:26:25;73.13;;;33.80;;
36457;SDS011;22480;50.546;12.292;2024-01-10T03:28:51;74.17;;;31.60;;
36457;SDS011;22480;50.546;12.292;2024-01-10T03:31:17;80.40;;;34.60;;
36457;SDS011;22480;50.546;12.292;2024-01-10T03:33:43;72.37;;;32.43;;
36457;SDS011;22480;50.546;12.292;2024-01-10T03:36:13;80.57;;;33.47;;
36457;SDS011;22480;50.546;12.292;2024-01-10T03:38:40;74.17;;;33.70;;
36457;SDS011;22480;50.546;12.292;2024-01-10T03:41:06;83.83;;;34.50;;
36457;SDS011;22480;50.546;12.292;2024-01-10T03:43:32;77.93;;;33.07;;
36457;SDS011;22480;50.546;12.292;2024-01-10T03:45:58;76.63;;;34.13;;
36457;SDS011;22480;50.546;12.292;2024-01-10T03:48:23;71.97;;;34.43;;
36457;SDS011;22480;50.546;12.292;2024-01-10T03:50:49;68.80;;;31.50;;
36457;SDS011;22480;50.546;12.292;2024-01-10T03:53:15;76.93;;;34.53;;
36457;SDS011;22480;50.546;12.292;2024-01-10T03:55:41;75.13;;;34.13;;
36457;SDS011;22480;50.546;12.292;2024-01-10T03:58:07;73.73;;;34.23;;
36457;SDS011;22480;50.546;12.292;2024-01-10T04:00:33;74.03;;;33.00;;
36457;SDS011;22480;50.546;12.292;2024-01-10T04:02:58;68.20;;;32.03;;
36457;SDS011;22480;50.546;12.292;2024-01-10T04:05:24;64.67;;;29.73;;
36457;SDS011;22480;50.546;12.292;2024-01-10T04:07:50;74.83;;;32.87;;
36457;SDS011;22480;50.546;12.292;2024-01-10T04:10:17;67.87;;;31.53;;
36457;SDS011;22480;50.546;12.292;2024-01-10T04:12:43;66.80;;;31.77;;
36457;SDS011;22480;50.546;12.292;2024-01-10T04:15:09;67.80;;;29.20;;
36457;SDS011;22480;50.546;12.292;2024-01-10T04:17:35;66.17;;;30.40;;
36457;SDS011;22480;50.546;12.292;2024-01-10T04:20:01;67.47;;;31.03;;
36457;SDS011;22480;50.546;12.292;2024-01-10T04:22:28;63.50;;;31.33;;
36457;SDS011;22480;50.546;12.292;2024-01-10T04:24:55;68.63;;;30.63;;
36457;SDS011;22480;50.546;12.292;2024-01-10T04:27:25;64.03;;;31.60;;
36457;SDS011;22480;50.546;12.292;2024-01-10T04:29:51;64.20;;;31.53;;
36457;SDS011;22480;50.546;12.292;2024-01-10T04:32:17;66.27;;;32.13;;
36457;SDS011;22480;50.546;12.292;2024-01-10T04:34:43;72.70;;;31.67;;
36457;SDS011;22480;50.546;12.292;2024-01-10T04:37:09;59.10;;;29.77;;
36457;SDS011;22480;50.546;12.292;2024-01-10T04:39:35;64.87;;;31.17;;
36457;SDS011;22480;50.546;12.292;2024-01-10T04:42:02;64.67;;;29.30;;
36457;SDS011;22480;50.546;12.292;2024-01-10T04:44:28;65.23;;;29.37;;
36457;SDS011;22480;50.546;12.292;2024-01-10T04:46:53;65.80;;;29.23;;
36457;SDS011;22480;50.546;12.292;2024-01-10T04:49:19;66.73;;;30.40;;
36457;SDS011;22480;50.546;12.292;2024-01-10T04:51:46;53.70;;;28.13;;
36457;SDS011;22480;50.546;12.292;2024-01-10T04:54:12;67.17;;;30.63;;
36457;SDS011;22480;50.546;12.292;2024-01-10T04:56:37;63.90;;;29.83;;
36457;SDS011;22480;50.546;12.292;2024-01-10T04:59:04;63.77;;;30.63;;
36457;SDS011;22480;50.546;12.292;2024-01-10T05:01:30;70.73;;;30.93;;
36457;SDS011;22480;50.546;12.292;2024-01-10T05:03:57;66.23;;;32.37;;
36457;SDS011;22480;50.546;12.292;2024-01-10T05:06:22;70.27;;;30.00;;
36457;SDS011;22480;50.546;12.292;2024-01-10T05:08:48;66.20;;;31.00;;
36457;SDS011;22480;50.546;12.292;2024-01-10T05:11:15;60.37;;;30.53;;
36457;SDS011;22480;50.546;12.292;2024-01-10T05:13:41;66.57;;;31.27;;
36457;SDS011;22480;50.546;12.292;2024-01-10T05:16:07;66.07;;;30.07;;
36457;SDS011;22480;50.546;12.292;2024-01-10T05:18:33;72.60;;;31.53;;
36457;SDS011;22480;50.546;12.292;2024-01-10T05:20:59;69.30;;;32.10;;
36457;SDS011;22480;50.546;12.292;2024-01-10T05:23:26;66.00;;;31.87;;
36457;SDS011;22480;50.546;12.292;2024-01-10T05:25:53;75.30;;;35.13;;
36457;SDS011;22480;50.546;12.292;2024-01-10T05:28:18;67.07;;;31.37;;
36457;SDS011;22480;50.546;12.292;2024-01-10T05:30:53;71.73;;;32.00;;
36457;SDS011;22480;50.546;12.292;2024-01-10T05:33:19;66.70;;;31.33;;
36457;SDS011;22480;50.546;12.292;2024-01-10T05:35:51;68.45;;;32.90;;
36457;SDS011;22480;50.546;12.292;2024-01-10T05:38:26;69.53;;;31.00;;
36457;SDS011;22480;50.546;12.292;2024-01-10T05:40:55;64.53;;;29.57;;
36457;SDS011;22480;50.546;12.292;2024-01-10T05:43:24;62.27;;;28.40;;
36457;SDS011;22480;50.546;12.292;2024-01-10T05:45:59;64.13;;;29.80;;
36457;SDS011;22480;50.546;12.292;2024-01-10T05:48:28;65.60;;;28.10;;
36457;SDS011;22480;50.546;12.292;2024-01-10T05:50:53;60.30;;;29.33;;
36457;SDS011;22480;50.546;12.292;2024-01-10T05:53:19;64.83;;;30.17;;
36457;SDS011;22480;50.546;12.292;2024-01-10T05:55:45;74.87;;;35.07;;
36457;SDS011;22480;50.546;12.292;2024-01-10T05:58:10;69.00;;;35.27;;
36457;SDS011;22480;50.546;12.292;2024-01-10T06:00:37;64.13;;;31.47;;
36457;SDS011;22480;50.546;12.292;2024-01-10T06:03:05;61.70;;;29.30;;
36457;SDS011;22480;50.546;12.292;2024-01-10T06:05:37;63.23;;;31.80;;
36457;SDS011;22480;50.546;12.292;2024-01-10T06:08:03;69.90;;;30.87;;
36457;SDS011;22480;50.546;12.292;2024-01-10T06:10:29;74.23;;;32.00;;
36457;SDS011;22480;50.546;12.292;2024-01-10T06:12:55;66.03;;;30.57;;
36457;SDS011;22480;50.546;12.292;2024-01-10T06:15:45;61.10;;;28.50;;
36457;SDS011;22480;50.546;12.292;2024-01-10T06:18:11;57.60;;;27.33;;
36457;SDS011;22480;50.546;12.292;2024-01-10T06:20:37;63.37;;;30.77;;
36457;SDS011;22480;50.546;12.292;2024-01-10T06:23:04;67.97;;;29.47;;
36457;SDS011;22480;50.546;12.292;2024-01-10T06:25:30;60.67;;;30.57;;
36457;SDS011;22480;50.546;12.292;2024-01-10T06:27:56;69.17;;;30.13;;
36457;SDS011;22480;50.546;12.292;2024-01-10T06:30:21;60.37;;;27.47;;
36457;SDS011;22480;50.546;12.292;2024-01-10T06:32:47;56.80;;;27.07;;
36457;SDS011;22480;50.546;12.292;2024-01-10T06:35:13;52.10;;;25.67;;
36457;SDS011;22480;50.546;12.292;2024-01-10T06:37:40;60.00;;;27.53;;
36457;SDS011;22480;50.546;12.292;2024-01-10T06:40:06;56.73;;;28.30;;
36457;SDS011;22480;50.546;12.292;2024-01-10T06:42:32;65.80;;;29.33;;
36457;SDS011;22480;50.546;12.292;2024-01-10T06:44:58;63.33;;;28.37;;
36457;SDS011;22480;50.546;12.292;2024-01-10T06:47:24;52.33;;;27.50;;
36457;SDS011;22480;50.546;12.292;2024-01-10T06:49:49;62.80;;;27.60;;
36457;SDS011;22480;50.546;12.292;2024-01-10T06:52:15;57.20;;;28.10;;
36457;SDS011;22480;50.546;12.292;2024-01-10T06:54:41;60.30;;;27.97;;
36457;SDS011;22480;50.546;12.292;2024-01-10T06:57:07;61.27;;;31.67;;
36457;SDS011;22480;50.546;12.292;2024-01-10T06:59:33;68.97;;;28.37;;
36457;SDS011;22480;50.546;12.292;2024-01-10T07:01:58;60.10;;;28.80;;
36457;SDS011;22480;50.546;12.292;2024-01-10T07:04:26;67.03;;;29.20;;
36457;SDS011;22480;50.546;12.292;2024-01-10T07:06:53;62.13;;;28.90;;
36457;SDS011;22480;50.546;12.292;2024-01-10T07:09:18;60.77;;;27.43;;
36457;SDS011;22480;50.546;12.292;2024-01-10T07:11:48;57.17;;;27.53;;
36457;SDS011;22480;50.546;12.292;2024-01-10T07:14:16;60.20;;;27.23;;
36457;SDS011;22480;50.546;12.292;2024-01-10T07:16:42;60.40;;;26.90;;
36457;SDS011;22480;50.546;12.292;2024-01-10T07:19:11;53.07;;;24.27;;
36457;SDS011;22480;50.546;12.292;2024-01-10T07:21:40;66.28;;;29.95;;
36457;SDS011;22480;50.546;12.292;2024-01-10T07:24:07;64.97;;;31.23;;
36457;SDS011;22480;50.546;12.292;2024-01-10T07:26:37;69.53;;;31.77;;
36457;SDS011;22480;50.546;12.292;2024-01-10T07:29:03;82.27;;;37.07;;
36457;SDS011;22480;50.546;12.292;2024-01-10T07:31:29;84.50;;;36.57;;
36457;SDS011;22480;50.546;12.292;2024-01-10T07:33:55;113.40;;;46.43;;
36457;SDS011;22480;50.546;12.292;2024-01-10T07:36:23;125.03;;;48.03;;
36457;SDS011;22480;50.546;12.292;2024-01-10T07:38:51;108.15;;;47.45;;
36457;SDS011;22480;50.546;12.292;2024-01-10T07:41:18;120.67;;;46.13;;
36457;SDS011;22480;50.546;12.292;2024-01-10T07:43:43;122.00;;;47.87;;
36457;SDS011;22480;50.546;12.292;2024-01-10T07:46:09;81.07;;;37.70;;
36457;SDS011;22480;50.546;12.292;2024-01-10T07:48:35;86.47;;;39.43;;
36457;SDS011;22480;50.546;12.292;2024-01-10T07:51:01;93.10;;;40.90;;
36457;SDS011;22480;50.546;12.292;2024-01-10T07:53:29;110.73;;;44.30;;
36457;SDS011;22480;50.546;12.292;2024-01-10T07:55:55;98.37;;;43.63;;
36457;SDS011;22480;50.546;12.292;2024-01-10T07:58:21;99.93;;;44.83;;
36457;SDS011;22480;50.546;12.292;2024-01-10T08:00:46;99.40;;;40.97;;
36457;SDS011;22480;50.546;12.292;2024-01-10T08:03:12;90.60;;;37.90;;
36457;SDS011;22480;50.546;12.292;2024-01-10T08:05:37;84.20;;;38.63;;
36457;SDS011;22480;50.546;12.292;2024-01-10T08:08:03;93.73;;;43.30;;
36457;SDS011;22480;50.546;12.292;2024-01-10T08:10:29;97.30;;;45.77;;
36457;SDS011;22480;50.546;12.292;2024-01-10T08:12:55;102.90;;;47.13;;
36457;SDS011;22480;50.546;12.292;2024-01-10T08:15:22;90.77;;;45.17;;
36457;SDS011;22480;50.546;12.292;2024-01-10T08:17:48;90.83;;;45.47;;
36457;SDS011;22480;50.546;12.292;2024-01-10T08:20:14;87.20;;;43.10;;
36457;SDS011;22480;50.546;12.292;2024-01-10T08:22:44;90.23;;;44.47;;
36457;SDS011;22480;50.546;12.292;2024-01-10T08:25:10;71.03;;;37.90;;
36457;SDS011;22480;50.546;12.292;2024-01-10T08:27:36;72.43;;;36.73;;
36457;SDS011;22480;50.546;12.292;2024-01-10T08:30:02;66.20;;;32.10;;
36457;SDS011;22480;50.546;12.292;2024-01-10T08:32:31;75.23;;;35.57;;
36457;SDS011;22480;50.546;12.292;2024-01-10T08:34:57;65.80;;;33.27;;
36457;SDS011;22480;50.546;12.292;2024-01-10T08:37:22;75.93;;;34.13;;
36457;SDS011;22480;50.546;12.292;2024-01-10T08:39:48;73.07;;;33.40;;
36457;SDS011;22480;50.546;12.292;2024-01-10T08:42:15;80.33;;;36.17;;
36457;SDS011;22480;50.546;12.292;2024-01-10T08:44:41;80.07;;;35.70;;
36457;SDS011;22480;50.546;12.292;2024-01-10T08:47:07;72.77;;;33.83;;
36457;SDS011;22480;50.546;12.292;2024-01-10T08:49:32;71.67;;;34.97;;
36457;SDS011;22480;50.546;12.292;2024-01-10T08:51:58;70.43;;;35.77;;
36457;SDS011;22480;50.546;12.292;2024-01-10T08:54:24;89.27;;;41.70;;
36457;SDS011;22480;50.546;12.292;2024-01-10T08:56:50;86.57;;;40.87;;
36457;SDS011;22480;50.546;12.292;2024-01-10T08:59:15;78.07;;;37.20;;
36457;SDS011;22480;50.546;12.292;2024-01-10T09:01:41;74.67;;;34.23;;
36457;SDS011;22480;50.546;12.292;2024-01-10T09:04:07;75.53;;;35.40;;
36457;SDS011;22480;50.546;12.292;2024-01-10T09:06:33;81.37;;;38.40;;
36457;SDS011;22480;50.546;12.292;2024-01-10T09:09:00;75.33;;;38.23;;
36457;SDS011;22480;50.546;12.292;2024-01-10T09:11:26;82.30;;;37.67;;
36457;SDS011;22480;50.546;12.292;2024-01-10T09:13:52;80.07;;;37.47;;
36457;SDS011;22480;50.546;12.292;2024-01-10T09:16:17;84.77;;;38.93;;
36457;SDS011;22480;50.546;12.292;2024-01-10T09:18:43;78.43;;;36.30;;
36457;SDS011;22480;50.546;12.292;2024-01-10T09:21:09;74.87;;;37.57;;
36457;SDS011;22480;50.546;12.292;2024-01-10T09:23:35;71.67;;;35.20;;
36457;SDS011;22480;50.546;12.292;2024-01-10T09:26:02;75.67;;;36.60;;
36457;SDS011;22480;50.546;12.292;2024-01-10T09:28:28;68.67;;;35.10;;
36457;SDS011;22480;50.546;12.292;2024-01-10T09:30:53;66.63;;;32.17;;
36457;SDS011;22480;50.546;12.292;2024-01-10T09:33:19;66.47;;;32.83;;
36457;SDS011;22480;50.546;12.292;2024-01-10T09:35:47;66.57;;;33.17;;
36457;SDS011;22480;50.546;12.292;2024-01-10T09:38:13;76.20;;;34.07;;
36457;SDS011;22480;50.546;12.292;2024-01-10T09:40:39;67.17;;;32.90;;
36457;SDS011;22480;50.546;12.292;2024-01-10T09:43:05;67.33;;;33.03;;
36457;SDS011;22480;50.546;12.292;2024-01-10T09:45:36;64.87;;;29.90;;
36457;SDS011;22480;50.546;12.292;2024-01-10T09:48:07;61.80;;;31.73;;
36457;SDS011;22480;50.546;12.292;2024-01-10T09:50:33;61.87;;;29.43;;
36457;SDS011;22480;50.546;12.292;2024-01-10T09:53:04;70.93;;;34.67;;
36457;SDS011;22480;50.546;12.292;2024-01-10T09:55:35;80.43;;;39.07;;
36457;SDS011;22480;50.546;12.292;2024-01-10T09:58:05;80.90;;;40.47;;
36457;SDS011;22480;50.546;12.292;2024-01-10T10:00:34;76.90;;;38.13;;
36457;SDS011;22480;50.546;12.292;2024-01-10T10:03:01;85.63;;;39.90;;
36457;SDS011;22480;50.546;12.292;2024-01-10T10:05:29;86.37;;;40.63;;
36457;SDS011;22480;50.546;12.292;2024-01-10T10:07:55;83.47;;;39.97;;
36457;SDS011;22480;50.546;12.292;2024-01-10T10:10:22;75.27;;;39.00;;
36457;SDS011;22480;50.546;12.292;2024-01-10T10:12:49;80.53;;;40.90;;
36457;SDS011;22480;50.546;12.292;2024-01-10T10:15:22;76.60;;;38.07;;
36457;SDS011;22480;50.546;12.292;2024-01-10T10:17:51;73.47;;;39.00;;
36457;SDS011;22480;50.546;12.292;2024-01-10T10:22:57;66.25;;;36.60;;
36457;SDS011;22480;50.546;12.292;2024-01-10T10:25:25;80.63;;;41.60;;
36457;SDS011;22480;50.546;12.292;2024-01-10T10:27:55;88.00;;;42.93;;
36457;SDS011;22480;50.546;12.292;2024-01-10T10:30:20;83.67;;;41.40;;
36457;SDS011;22480;50.546;12.292;2024-01-10T10:32:47;71.53;;;37.53;;
36457;SDS011;22480;50.546;12.292;2024-01-10T10:35:13;67.90;;;34.50;;
36457;SDS011;22480;50.546;12.292;2024-01-10T10:37:39;70.43;;;33.50;;
36457;SDS011;22480;50.546;12.292;2024-01-10T10:40:05;69.07;;;35.27;;
36457;SDS011;22480;50.546;12.292;2024-01-10T10:42:34;78.93;;;37.30;;
36457;SDS011;22480;50.546;12.292;2024-01-10T10:45:03;74.60;;;37.42;;
36457;SDS011;22480;50.546;12.292;2024-01-10T10:47:30;73.10;;;36.40;;
36457;SDS011;22480;50.546;12.292;2024-01-10T10:50:02;75.33;;;38.07;;
36457;SDS011;22480;50.546;12.292;2024-01-10T10:52:29;76.50;;;37.10;;
36457;SDS011;22480;50.546;12.292;2024-01-10T10:54:56;76.33;;;37.83;;
36457;SDS011;22480;50.546;12.292;2024-01-10T10:57:27;70.30;;;37.23;;
36457;SDS011;22480;50.546;12.292;2024-01-10T10:59:54;78.45;;;40.85;;
36457;SDS011;22480;50.546;12.292;2024-01-10T11:02:22;83.60;;;43.80;;
36457;SDS011;22480;50.546;12.292;2024-01-10T11:04:48;78.13;;;39.20;;
36457;SDS011;22480;50.546;12.292;2024-01-10T11:07:15;79.17;;;38.53;;
36457;SDS011;22480;50.546;12.292;2024-01-10T11:09:41;73.33;;;38.97;;
36457;SDS011;22480;50.546;12.292;2024-01-10T11:12:15;68.45;;;36.72;;
36457;SDS011;22480;50.546;12.292;2024-01-10T11:23:21;62.10;;;34.73;;
36457;SDS011;22480;50.546;12.292;2024-01-10T11:26:14;57.00;;;31.77;;
36457;SDS011;22480;50.546;12.292;2024-01-10T11:28:41;50.00;;;30.90;;
36457;SDS011;22480;50.546;12.292;2024-01-10T11:31:07;48.45;;;31.15;;
36457;SDS011;22480;50.546;12.292;2024-01-10T11:33:34;47.15;;;30.00;;
36457;SDS011;22480;50.546;12.292;2024-01-10T11:36:20;46.00;;;30.60;;
36457;SDS011;22480;50.546;12.292;2024-01-10T11:41:28;40.83;;;26.95;;
36457;SDS011;22480;50.546;12.292;2024-01-10T11:46:37;44.33;;;27.50;;
36457;SDS011;22480;50.546;12.292;2024-01-10T11:49:03;37.83;;;25.00;;
36457;SDS011;22480;50.546;12.292;2024-01-10T11:51:32;38.22;;;23.90;;
36457;SDS011;22480;50.546;12.292;2024-01-10T11:53:57;34.75;;;22.58;;
36457;SDS011;22480;50.546;12.292;2024-01-10T11:56:24;35.38;;;22.00;;
36457;SDS011;22480;50.546;12.292;2024-01-10T11:59:07;35.60;;;24.80;;
36457;SDS011;22480;50.546;12.292;2024-01-10T12:01:36;36.53;;;25.42;;
36457;SDS011;22480;50.546;12.292;2024-01-10T12:04:03;39.17;;;25.13;;
36457;SDS011;22480;50.546;12.292;2024-01-10T12:06:30;38.33;;;24.42;;
36457;SDS011;22480;50.546;12.292;2024-01-10T12:08:57;33.92;;;23.05;;
36457;SDS011;22480;50.546;12.292;2024-01-10T12:11:23;35.42;;;24.42;;
36457;SDS011;22480;50.546;12.292;2024-01-10T12:13:49;40.20;;;26.02;;
36457;SDS011;22480;50.546;12.292;2024-01-10T12:16:14;41.20;;;25.90;;
36457;SDS011;22480;50.546;12.292;2024-01-10T12:18:44;40.75;;;26.30;;
36457;SDS011;22480;50.546;12.292;2024-01-10T12:21:10;36.45;;;23.95;;
36457;SDS011;22480;50.546;12.292;2024-01-10T12:23:37;38.38;;;24.48;;
36457;SDS011;22480;50.546;12.292;2024-01-10T12:26:08;34.92;;;24.20;;
36457;SDS011;22480;50.546;12.292;2024-01-10T12:28:39;37.42;;;23.70;;
36457;SDS011;22480;50.546;12.292;2024-01-10T12:31:05;41.72;;;25.65;;
36457;SDS011;22480;50.546;12.292;2024-01-10T12:33:37;42.73;;;27.83;;
36457;SDS011;22480;50.546;12.292;2024-01-10T12:36:08;44.65;;;28.63;;
36457;SDS011;22480;50.546;12.292;2024-01-10T12:41:01;40.10;;;26.98;;
36457;SDS011;22480;50.546;12.292;2024-01-10T12:43:27;40.50;;;25.27;;
36457;SDS011;22480;50.546;12.292;2024-01-10T12:46:14;38.95;;;24.45;;
36457;SDS011;22480;50.546;12.292;2024-01-10T12:48:39;40.35;;;24.17;;
36457;SDS011;22480;50.546;12.292;2024-01-10T12:51:09;36.80;;;21.90;;
36457;SDS011;22480;50.546;12.292;2024-01-10T12:53:38;36.00;;;21.85;;
36457;SDS011;22480;50.546;12.292;2024-01-10T12:56:06;33.47;;;21.45;;
36457;SDS011;22480;50.546;12.292;2024-01-10T12:58:35;35.38;;;22.17;;
36457;SDS011;22480;50.546;12.292;2024-01-10T13:01:02;32.17;;;21.77;;
36457;SDS011;22480;50.546;12.292;2024-01-10T13:03:31;34.35;;;24.02;;
36457;SDS011;22480;50.546;12.292;2024-01-10T13:05:57;42.65;;;28.00;;
36457;SDS011;22480;50.546;12.292;2024-01-10T13:08:23;40.63;;;27.70;;
36457;SDS011;22480;50.546;12.292;2024-01-10T13:10:49;40.72;;;27.58;;
36457;SDS011;22480;50.546;12.292;2024-01-10T13:13:15;37.75;;;26.40;;
36457;SDS011;22480;50.546;12.292;2024-01-10T13:15:43;42.45;;;28.73;;
36457;SDS011;22480;50.546;12.292;2024-01-10T13:18:10;33.67;;;23.55;;
36457;SDS011;22480;50.546;12.292;2024-01-10T13:20:36;41.70;;;27.05;;
36457;SDS011;22480;50.546;12.292;2024-01-10T13:23:03;40.63;;;26.20;;
36457;SDS011;22480;50.546;12.292;2024-01-10T13:25:29;36.83;;;25.65;;
36457;SDS011;22480;50.546;12.292;2024-01-10T13:27:55;38.22;;;26.60;;
36457;SDS011;22480;50.546;12.292;2024-01-10T13:30:22;38.63;;;27.13;;
36457;SDS011;22480;50.546;12.292;2024-01-10T13:32:48;35.83;;;25.48;;
36457;SDS011;22480;50.546;12.292;2024-01-10T13:35:14;39.08;;;26.23;;
36457;SDS011;22480;50.546;12.292;2024-01-10T13:37:44;38.95;;;25.00;;
36457;SDS011;22480;50.546;12.292;2024-01-10T13:40:11;35.05;;;23.27;;
36457;SDS011;22480;50.546;12.292;2024-01-10T13:42:40;36.53;;;23.55;;
36457;SDS011;22480;50.546;12.292;2024-01-10T13:45:06;37.30;;;22.45;;
36457;SDS011;22480;50.546;12.292;2024-01-10T13:47:33;34.67;;;23.42;;
36457;SDS011;22480;50.546;12.292;2024-01-10T13:49:59;32.70;;;23.15;;
36457;SDS011;22480;50.546;12.292;2024-01-10T13:52:25;35.28;;;23.55;;
36457;SDS011;22480;50.546;12.292;2024-01-10T13:54:51;39.17;;;23.52;;
36457;SDS011;22480;50.546;12.292;2024-01-10T13:57:17;34.65;;;23.08;;
36457;SDS011;22480;50.546;12.292;2024-01-10T13:59:43;33.65;;;22.80;;
36457;SDS011;22480;50.546;12.292;2024-01-10T14:02:09;32.50;;;22.67;;
36457;SDS011;22480;50.546;12.292;2024-01-10T14:04:35;35.00;;;22.88;;
36457;SDS011;22480;50.546;12.292;2024-01-10T14:07:01;34.90;;;23.02;;
36457;SDS011;22480;50.546;12.292;2024-01-10T14:09:30;32.42;;;22.63;;
36457;SDS011;22480;50.546;12.292;2024-01-10T14:11:56;33.85;;;21.73;;
36457;SDS011;22480;50.546;12.292;2024-01-10T14:14:22;34.63;;;21.67;;
36457;SDS011;22480;50.546;12.292;2024-01-10T14:16:48;34.67;;;22.92;;
36457;SDS011;22480;50.546;12.292;2024-01-10T14:19:14;35.25;;;22.05;;
36457;SDS011;22480;50.546;12.292;2024-01-10T14:21:42;40.45;;;24.17;;
36457;SDS011;22480;50.546;12.292;2024-01-10T14:24:08;36.20;;;24.02;;
36457;SDS011;22480;50.546;12.292;2024-01-10T14:26:34;39.15;;;23.45;;
36457;SDS011;22480;50.546;12.292;2024-01-10T14:29:00;38.85;;;23.85;;